Time;durP1;ratioP1;P1;durP2;ratioP2;P2;SDS_P1;SDS_P2;PMS_P1;PMS_P2;Temp;Humidity;BMP_temperature;BMP_pressure;BME280_temperature;BME280_humidity;BME280_pressure;Samples;Min_cycle;Max_cycle;Signal;HPM_P1;HPM_P2
2022/03/30 00:00:51;;;;;;;32.60;15.90;;;;;;;-0.15;100.00;99869.28;4965695;28;20584;-70
2022/03/30 00:03:18;;;;;;;30.30;15.97;;;;;;;-0.05;100.00;99860.81;4972710;28;20599;-71
2022/03/30 00:05:45;;;;;;;28.30;16.20;;;;;;;-0.11;100.00;99859.03;4969240;28;20202;-71
2022/03/30 00:08:11;;;;;;;28.13;14.43;;;;;;;-0.19;100.00;99860.72;4971885;28;20729;-73
2022/03/30 00:10:38;;;;;;;31.93;15.30;;;;;;;-0.07;100.00;99859.91;4965318;28;20230;-74
2022/03/30 00:13:05;;;;;;;26.87;14.90;;;;;;;-0.11;100.00;99864.16;4970589;28;20576;-71
2022/03/30 00:15:32;;;;;;;29.83;15.50;;;;;;;-0.27;100.00;99857.25;4965928;28;20202;-72
2022/03/30 00:17:58;;;;;;;32.90;15.73;;;;;;;-0.31;100.00;99855.53;4972693;28;20218;-70
2022/03/30 00:20:25;;;;;;;36.23;15.73;;;;;;;-0.39;100.00;99860.59;4971362;28;20705;-71
2022/03/30 00:22:51;;;;;;;32.13;15.97;;;;;;;-0.47;100.00;99857.16;4972447;28;20217;-72
2022/03/30 00:25:18;;;;;;;32.33;15.80;;;;;;;-0.42;100.00;99852.91;4973732;28;20630;-71
2022/03/30 00:27:46;;;;;;;28.13;15.20;;;;;;;-0.59;100.00;99857.91;4974671;28;20241;-70
2022/03/30 00:30:16;;;;;;;30.03;15.23;;;;;;;-0.47;100.00;99859.72;4973387;28;20682;-71
2022/03/30 00:32:43;;;;;;;31.90;15.97;;;;;;;-0.49;100.00;99857.13;4971546;28;20202;-71
2022/03/30 00:35:10;;;;;;;33.37;15.53;;;;;;;-0.53;100.00;99857.09;4975289;28;20201;-71
2022/03/30 00:37:38;;;;;;;30.63;15.20;;;;;;;-0.68;100.00;99860.41;4971655;28;20217;-71
2022/03/30 00:40:06;;;;;;;35.57;15.53;;;;;;;-0.58;100.00;99863.06;4975034;28;20240;-71
2022/03/30 00:42:33;;;;;;;30.10;15.50;;;;;;;-0.40;100.00;99858.91;4972307;28;20209;-71
2022/03/30 00:44:59;;;;;;;35.00;17.10;;;;;;;-0.53;100.00;99862.22;4975696;28;20197;-70
2022/03/30 00:47:27;;;;;;;29.33;14.80;;;;;;;-0.53;100.00;99855.38;4972313;28;20194;-72
2022/03/30 00:49:55;;;;;;;33.13;15.80;;;;;;;-0.60;100.00;99848.50;4974313;28;20197;-72
2022/03/30 00:52:21;;;;;;;35.43;16.73;;;;;;;-0.68;100.00;99852.72;4974347;28;20659;-72
2022/03/30 00:54:50;;;;;;;29.13;14.80;;;;;;;-0.76;100.00;99844.97;4975621;28;20198;-72
2022/03/30 00:57:20;;;;;;;35.43;17.33;;;;;;;-0.81;100.00;99847.53;4981361;28;20565;-72
2022/03/30 00:59:46;;;;;;;31.63;16.70;;;;;;;-0.86;100.00;99844.06;4973195;28;20560;-72
2022/03/30 01:02:14;;;;;;;29.17;15.50;;;;;;;-0.89;100.00;99853.44;4969657;28;20281;-71
2022/03/30 01:04:42;;;;;;;33.23;16.50;;;;;;;-0.79;100.00;99838.16;4972462;28;20456;-72
2022/03/30 01:07:09;;;;;;;33.00;15.20;;;;;;;-0.90;100.00;99842.31;4973593;28;20819;-70
2022/03/30 01:09:35;;;;;;;35.50;15.97;;;;;;;-0.96;100.00;99848.25;4976405;28;20453;-71
2022/03/30 01:12:02;;;;;;;34.50;16.07;;;;;;;-0.88;100.00;99839.75;4977713;28;20704;-71
2022/03/30 01:14:28;;;;;;;32.53;15.83;;;;;;;-0.73;100.00;99839.03;4969353;28;20218;-70
2022/03/30 01:16:54;;;;;;;29.80;15.87;;;;;;;-0.85;100.00;99839.78;4971505;28;20204;-70
2022/03/30 01:19:21;;;;;;;31.93;15.50;;;;;;;-0.84;100.00;99842.38;4968644;28;20230;-70
2022/03/30 01:21:49;;;;;;;38.17;17.30;;;;;;;-1.04;100.00;99841.34;4975407;28;20731;-71
2022/03/30 01:24:15;;;;;;;37.17;17.07;;;;;;;-1.09;100.00;99835.31;4973888;28;20552;-74
2022/03/30 01:26:42;;;;;;;33.60;17.23;;;;;;;-1.08;100.00;99842.16;4976184;28;20206;-72
2022/03/30 01:34:35;;;;;;;35.03;16.80;;;;;;;-1.10;100.00;99831.91;4967931;28;20311;-70
2022/03/30 01:37:03;;;;;;;34.57;16.67;;;;;;;-1.17;100.00;99831.00;4969850;28;20952;-70
2022/03/30 01:39:29;;;;;;;34.93;16.63;;;;;;;-1.25;100.00;99824.97;4973820;28;20501;-70
2022/03/30 01:41:56;;;;;;;36.10;17.33;;;;;;;-1.38;100.00;99821.44;4971980;28;20228;-72
2022/03/30 01:44:24;;;;;;;37.23;17.30;;;;;;;-1.41;100.00;99823.94;4966579;28;20469;-72
2022/03/30 01:46:51;;;;;;;36.97;17.53;;;;;;;-1.23;100.00;99822.41;4965355;28;21148;-72
2022/03/30 01:49:21;;;;;;;38.53;17.57;;;;;;;-1.18;100.00;99820.75;4972938;28;20209;-71
2022/03/30 01:51:48;;;;;;;37.03;17.50;;;;;;;-1.28;100.00;99826.66;4968926;28;20492;-71
2022/03/30 01:54:16;;;;;;;38.43;17.47;;;;;;;-1.35;100.00;99821.47;4970208;28;20292;-70
2022/03/30 01:56:43;;;;;;;37.93;17.97;;;;;;;-1.33;100.00;99821.50;4967507;28;20894;-71
2022/03/30 01:59:09;;;;;;;40.03;19.00;;;;;;;-1.08;100.00;99821.69;4973841;28;20480;-71
2022/03/30 02:01:35;;;;;;;36.67;17.00;;;;;;;-1.16;100.00;99813.97;4968195;28;20487;-70
2022/03/30 02:04:02;;;;;;;34.53;16.63;;;;;;;-1.11;100.00;99809.72;4966526;28;20465;-70
2022/03/30 02:06:28;;;;;;;38.03;17.57;;;;;;;-1.27;100.00;99801.06;4962111;28;20471;-70
2022/03/30 02:08:55;;;;;;;38.33;17.20;;;;;;;-1.46;100.00;99807.75;4968949;28;20462;-71
2022/03/30 02:11:22;;;;;;;36.87;17.17;;;;;;;-1.41;100.00;99805.19;4967342;28;20481;-71
2022/03/30 02:13:49;;;;;;;34.47;16.33;;;;;;;-1.44;100.00;99807.72;4973382;28;20468;-70
2022/03/30 02:16:16;;;;;;;35.33;17.60;;;;;;;-1.35;100.00;99811.25;4965812;28;20463;-72
2022/03/30 02:18:42;;;;;;;33.87;15.83;;;;;;;-1.32;100.00;99807.84;4970032;28;20482;-70
2022/03/30 02:21:09;;;;;;;37.43;17.07;;;;;;;-1.48;100.00;99808.56;4980826;28;21012;-70
2022/03/30 02:23:35;;;;;;;37.60;16.93;;;;;;;-1.49;100.00;99809.41;4971112;28;20697;-69
2022/03/30 02:26:02;;;;;;;35.07;16.20;;;;;;;-1.26;100.00;99807.91;4974382;28;20460;-72
2022/03/30 02:28:30;;;;;;;35.40;15.57;;;;;;;-1.22;100.00;99807.09;4970884;28;20456;-70
2022/03/30 02:30:56;;;;;;;35.53;16.43;;;;;;;-1.57;100.00;99810.16;4971926;28;20996;-70
2022/03/30 02:33:23;;;;;;;36.83;16.47;;;;;;;-1.65;100.00;99813.47;4971936;28;20456;-71
2022/03/30 02:35:49;;;;;;;37.60;16.77;;;;;;;-1.57;100.00;99802.50;4964022;28;20462;-70
2022/03/30 02:38:16;;;;;;;35.93;16.93;;;;;;;-1.36;100.00;99803.56;4968885;28;20483;-70
2022/03/30 02:40:42;;;;;;;37.33;16.53;;;;;;;-1.36;100.00;99794.16;4968437;28;20498;-71
2022/03/30 02:43:09;;;;;;;39.33;17.57;;;;;;;-1.47;100.00;99800.03;4969981;28;20462;-70
2022/03/30 02:45:38;;;;;;;36.00;16.23;;;;;;;-1.54;100.00;99796.56;4968421;28;20534;-70
2022/03/30 02:48:22;;;;;;;38.10;17.17;;;;;;;-1.55;100.00;99803.38;4972310;28;20987;-71
2022/03/30 02:50:51;;;;;;;39.23;17.57;;;;;;;-1.66;100.00;99801.56;4971082;28;20480;-70
2022/03/30 02:53:18;;;;;;;37.70;17.87;;;;;;;-1.67;100.00;99804.94;4970034;28;21022;-70
2022/03/30 02:55:45;;;;;;;34.37;16.63;;;;;;;-1.79;100.00;99801.44;4967862;28;20901;-71
2022/03/30 02:58:13;;;;;;;33.90;16.00;;;;;;;-1.83;100.00;99801.38;4970815;28;20463;-70
2022/03/30 03:00:42;;;;;;;36.87;16.90;;;;;;;-1.75;100.00;99802.31;4966021;28;20491;-71
2022/03/30 03:03:08;;;;;;;33.80;17.37;;;;;;;-1.81;100.00;99798.00;4972869;28;20471;-70
2022/03/30 03:05:35;;;;;;;37.53;17.43;;;;;;;-2.03;100.00;99801.16;4969919;28;20469;-71
2022/03/30 03:08:03;;;;;;;39.67;18.23;;;;;;;-1.91;100.00;99798.72;4971676;28;20472;-70
2022/03/30 03:10:30;;;;;;;37.43;17.23;;;;;;;-1.72;100.00;99794.69;4971006;28;20489;-70
2022/03/30 03:12:57;;;;;;;36.00;16.67;;;;;;;-1.65;100.00;99793.03;4971906;28;20471;-70
2022/03/30 03:15:24;;;;;;;34.40;16.40;;;;;;;-1.69;100.00;99789.59;4972026;28;20513;-71
2022/03/30 03:17:52;;;;;;;36.67;18.13;;;;;;;-1.56;100.00;99793.16;4969746;28;20517;-70
2022/03/30 03:20:18;;;;;;;42.30;20.10;;;;;;;-1.67;100.00;99792.16;4972728;28;20499;-70
2022/03/30 03:22:45;;;;;;;39.53;18.83;;;;;;;-1.77;100.00;99788.66;4953325;28;20467;-70
2022/03/30 03:25:12;;;;;;;44.57;19.83;;;;;;;-1.65;100.00;99783.69;4974470;28;20463;-69
2022/03/30 03:27:39;;;;;;;39.30;20.00;;;;;;;-1.47;100.00;99777.03;4972173;28;20474;-70
2022/03/30 03:30:07;;;;;;;41.87;19.27;;;;;;;-1.63;100.00;99789.66;4969136;28;20482;-69
2022/03/30 03:32:33;;;;;;;35.37;18.10;;;;;;;-1.72;100.00;99780.19;4976307;28;20951;-71
2022/03/30 03:35:02;;;;;;;41.77;20.03;;;;;;;-1.82;100.00;99785.22;4971970;28;20467;-69
2022/03/30 03:37:28;;;;;;;43.17;19.70;;;;;;;-1.96;100.00;99778.22;4974874;28;20491;-72
2022/03/30 03:39:55;;;;;;;35.07;17.63;;;;;;;-1.88;100.00;99780.88;4973895;28;20481;-71
2022/03/30 03:42:21;;;;;;;42.27;19.13;;;;;;;-2.02;100.00;99774.75;4969048;28;20470;-70
2022/03/30 03:44:48;;;;;;;39.03;16.80;;;;;;;-1.87;100.00;99777.47;4969016;28;20490;-70
2022/03/30 03:47:14;;;;;;;37.87;18.50;;;;;;;-1.89;100.00;99774.06;4969409;28;20462;-71
2022/03/30 03:49:41;;;;;;;35.83;17.60;;;;;;;-2.05;100.00;99784.94;4968385;28;20456;-72
2022/03/30 03:52:09;;;;;;;36.60;17.20;;;;;;;-2.04;100.00;99779.88;4969037;28;20462;-71
2022/03/30 03:54:36;;;;;;;32.73;16.93;;;;;;;-2.00;100.00;99778.19;4969621;28;20483;-70
2022/03/30 03:57:02;;;;;;;37.43;17.20;;;;;;;-2.16;100.00;99774.63;4973820;28;20473;-69
2022/03/30 03:59:28;;;;;;;35.33;17.63;;;;;;;-2.04;100.00;99778.97;4970160;28;20857;-70
2022/03/30 04:01:55;;;;;;;37.67;17.03;;;;;;;-2.21;100.00;99781.34;4972961;28;20482;-71
2022/03/30 04:04:21;;;;;;;35.47;16.00;;;;;;;-2.30;100.00;99777.84;4971397;28;20469;-70
2022/03/30 04:06:48;;;;;;;31.60;15.07;;;;;;;-2.29;100.00;99783.81;4973037;28;20456;-70
2022/03/30 04:09:16;;;;;;;31.17;14.87;;;;;;;-2.38;100.00;99786.25;4971380;28;20896;-71
2022/03/30 04:11:42;;;;;;;33.20;15.60;;;;;;;-2.31;100.00;99781.22;4974082;28;20988;-70
2022/03/30 04:14:08;;;;;;;33.10;16.23;;;;;;;-2.36;100.00;99784.56;4972318;28;20486;-70
2022/03/30 04:16:35;;;;;;;46.63;18.10;;;;;;;-2.30;100.00;99777.84;4975007;28;20470;-70
2022/03/30 04:19:01;;;;;;;35.23;16.60;;;;;;;-2.31;100.00;99788.03;4974289;28;20987;-70
2022/03/30 04:21:27;;;;;;;39.40;18.20;;;;;;;-2.08;100.00;99788.31;4963790;28;20482;-71
2022/03/30 04:23:54;;;;;;;37.03;16.83;;;;;;;-2.21;100.00;99797.53;4976217;28;20492;-70
2022/03/30 04:26:22;;;;;;;37.03;17.07;;;;;;;-2.13;100.00;99795.94;4974807;28;20462;-69
2022/03/30 04:28:49;;;;;;;36.33;15.77;;;;;;;-1.96;100.00;99797.81;4979210;28;20948;-70
2022/03/30 04:31:15;;;;;;;41.00;17.23;;;;;;;-2.11;100.00;99795.94;4975338;28;20488;-71
2022/03/30 04:33:41;;;;;;;35.53;16.83;;;;;;;-1.79;100.00;99792.91;4971372;28;20453;-70
2022/03/30 04:36:08;;;;;;;38.43;17.30;;;;;;;-1.80;100.00;99792.03;4974276;28;20998;-70
2022/03/30 04:38:35;;;;;;;39.67;17.33;;;;;;;-1.97;100.00;99785.88;4974562;28;20848;-70
2022/03/30 04:41:02;;;;;;;35.37;16.73;;;;;;;-2.07;100.00;99784.09;4973852;28;20491;-71
2022/03/30 04:43:30;;;;;;;41.13;17.13;;;;;;;-1.89;100.00;99788.53;4971969;28;20478;-70
2022/03/30 04:45:56;;;;;;;38.80;17.57;;;;;;;-2.00;100.00;99785.88;4974200;28;20968;-70
2022/03/30 04:48:23;;;;;;;40.77;18.07;;;;;;;-2.14;100.00;99790.81;4969563;28;20832;-70
2022/03/30 04:50:50;;;;;;;38.77;18.07;;;;;;;-2.13;100.00;99784.84;4974504;28;20999;-70
2022/03/30 04:53:16;;;;;;;38.40;17.87;;;;;;;-2.17;100.00;99795.88;4970234;28;20950;-71
2022/03/30 04:55:42;;;;;;;39.10;16.53;;;;;;;-1.98;100.00;99800.34;4970383;28;20466;-70
2022/03/30 04:58:09;;;;;;;40.00;17.43;;;;;;;-1.91;100.00;99801.28;4974262;28;20468;-69
2022/03/30 05:00:37;;;;;;;42.83;18.03;;;;;;;-1.88;100.00;99805.56;4973369;28;20941;-71
2022/03/30 05:03:03;;;;;;;40.97;17.63;;;;;;;-2.01;100.00;99810.53;4973957;28;20806;-70
2022/03/30 05:05:30;;;;;;;41.57;18.47;;;;;;;-1.85;100.00;99808.16;4973057;28;20470;-69
2022/03/30 05:07:57;;;;;;;38.77;18.20;;;;;;;-1.70;100.00;99805.78;4971994;28;20542;-70
2022/03/30 05:10:23;;;;;;;40.87;18.13;;;;;;;-1.87;100.00;99812.41;4971735;28;20471;-73
2022/03/30 05:12:49;;;;;;;42.67;17.27;;;;;;;-1.82;100.00;99811.59;4967923;28;20468;-70
2022/03/30 05:15:16;;;;;;;39.70;17.63;;;;;;;-1.78;100.00;99804.84;4972164;28;20467;-70
2022/03/30 05:17:46;;;;;;;40.40;18.50;;;;;;;-1.70;100.00;99804.94;4974498;28;20479;-70
2022/03/30 05:22:40;;;;;;;38.87;18.53;;;;;;;-1.61;100.00;99800.75;4982950;28;20507;-69
2022/03/30 05:25:08;;;;;;;36.63;17.63;;;;;;;-1.50;100.00;99793.19;4987425;28;20473;-71
2022/03/30 05:27:34;;;;;;;43.53;18.97;;;;;;;-1.30;100.00;99793.38;4983408;28;21075;-71
2022/03/30 05:30:02;;;;;;;40.37;17.97;;;;;;;-1.36;100.00;99794.16;4984314;28;20455;-71
2022/03/30 05:32:29;;;;;;;42.17;19.07;;;;;;;-1.27;100.00;99795.94;4951992;28;20825;-70
2022/03/30 05:34:57;;;;;;;44.07;18.77;;;;;;;-1.23;100.00;99796.84;4971884;28;20986;-71
2022/03/30 05:37:24;;;;;;;45.03;20.17;;;;;;;-1.30;100.00;99792.50;4969724;28;20902;-71
2022/03/30 05:39:52;;;;;;;46.90;18.33;;;;;;;-1.39;100.00;99795.84;4971519;28;20506;-71
2022/03/30 05:42:20;;;;;;;45.47;18.97;;;;;;;-1.18;100.00;99790.06;4969111;28;20528;-70
2022/03/30 05:44:46;;;;;;;43.27;18.87;;;;;;;-1.09;100.00;99790.16;4968652;28;20506;-71
2022/03/30 05:47:14;;;;;;;46.93;19.33;;;;;;;-1.10;100.00;99787.56;4970945;28;20512;-71
2022/03/30 05:49:40;;;;;;;42.10;19.47;;;;;;;-1.01;100.00;99790.19;4967512;28;20461;-70
2022/03/30 05:52:09;;;;;;;41.87;19.10;;;;;;;-1.04;100.00;99788.50;4974111;28;20502;-71
2022/03/30 05:54:36;;;;;;;45.20;20.53;;;;;;;-0.97;100.00;99791.94;4988505;28;20461;-70
2022/03/30 05:57:02;;;;;;;44.17;19.73;;;;;;;-0.79;100.00;99788.66;4990654;28;20551;-70
2022/03/30 05:59:30;;;;;;;44.20;19.43;;;;;;;-0.80;100.00;99794.63;4989668;28;20474;-71
2022/03/30 06:01:57;;;;;;;43.87;18.33;;;;;;;-0.85;100.00;99798.84;4989619;28;21027;-70
2022/03/30 06:04:24;;;;;;;38.57;18.33;;;;;;;-0.75;100.00;99795.50;4988141;28;20463;-70
2022/03/30 06:06:50;;;;;;;44.20;19.17;;;;;;;-0.68;100.00;99798.97;4990456;28;20468;-70
2022/03/30 06:09:19;;;;;;;41.20;18.67;;;;;;;-0.51;100.00;99801.59;4987598;28;20221;-71
2022/03/30 06:11:45;;;;;;;41.00;18.50;;;;;;;-0.54;100.00;99801.63;4990494;28;20470;-70
2022/03/30 06:14:13;;;;;;;45.13;18.27;;;;;;;-0.43;100.00;99794.84;4989263;28;20483;-70
2022/03/30 06:16:41;;;;;;;41.17;18.80;;;;;;;-0.40;100.00;99805.09;4987902;28;20704;-70
2022/03/30 06:19:09;;;;;;;37.10;17.20;;;;;;;-0.35;100.00;99807.69;4988072;28;20457;-71
2022/03/30 06:21:35;;;;;;;45.20;17.67;;;;;;;-0.18;100.00;99802.66;4988090;28;20240;-70
2022/03/30 06:24:02;;;;;;;38.80;16.80;;;;;;;-0.36;100.00;99808.53;4984165;28;20205;-71
2022/03/30 06:26:30;;;;;;;34.93;15.27;;;;;;;-0.31;100.00;99802.59;4984061;28;20189;-70
2022/03/30 06:28:57;;;;;;;29.67;13.70;;;;;;;-0.34;100.00;99802.56;4986963;28;20208;-70
2022/03/30 06:31:24;;;;;;;35.17;14.00;;;;;;;-0.15;100.00;99808.63;4988070;28;20213;-70
2022/03/30 06:33:50;;;;;;;29.00;13.47;;;;;;;-0.16;100.00;99803.50;4987809;28;20209;-71
2022/03/30 06:36:17;;;;;;;25.10;12.10;;;;;;;-0.14;100.00;99796.66;4986909;28;20684;-70
2022/03/30 06:38:44;;;;;;;23.77;11.20;;;;;;;-0.09;100.00;99795.00;4986025;28;20217;-71
2022/03/30 06:41:12;;;;;;;26.30;11.30;;;;;;;-0.02;100.00;99802.72;4987689;28;20261;-71
2022/03/30 06:43:42;;;;;;;25.83;10.70;;;;;;;0.10;100.00;99804.44;4986336;28;20212;-70
2022/03/30 06:46:09;;;;;;;16.80;9.97;;;;;;;0.25;100.00;99802.81;4982010;28;20273;-71
2022/03/30 06:48:35;;;;;;;23.23;10.50;;;;;;;0.36;100.00;99801.13;4985187;28;20213;-71
2022/03/30 06:51:02;;;;;;;29.67;11.83;;;;;;;0.52;100.00;99800.28;4988496;28;20220;-71
2022/03/30 06:53:29;;;;;;;21.90;11.13;;;;;;;0.67;100.00;99798.59;4988238;28;20555;-71
2022/03/30 06:55:56;;;;;;;31.37;13.67;;;;;;;0.76;100.00;99796.06;4988045;28;20650;-71
2022/03/30 06:58:23;;;;;;;26.73;12.43;;;;;;;0.86;100.00;99797.78;4987017;28;20274;-71
2022/03/30 07:00:51;;;;;;;26.53;12.87;;;;;;;0.99;100.00;99800.34;4985420;28;20240;-71
2022/03/30 07:03:17;;;;;;;25.33;12.43;;;;;;;1.03;100.00;99799.47;4987035;28;20190;-70
2022/03/30 07:05:44;;;;;;;29.60;13.97;;;;;;;1.02;100.00;99805.44;4982821;28;20292;-71
2022/03/30 07:10:55;;;;;;;26.30;13.30;;;;;;;0.97;100.00;99796.88;4987882;28;20302;-71
2022/03/30 07:13:22;;;;;;;24.80;13.43;;;;;;;1.03;100.00;99795.19;4989253;28;20205;-71
2022/03/30 07:15:49;;;;;;;29.70;14.77;;;;;;;1.15;100.00;99794.31;4995272;28;20215;-72
2022/03/30 07:18:16;;;;;;;28.87;13.57;;;;;;;1.25;100.00;99792.59;4995175;28;20201;-72
2022/03/30 07:20:43;;;;;;;31.50;14.03;;;;;;;1.36;100.00;99795.16;4988324;28;20225;-72
2022/03/30 07:23:10;;;;;;;26.27;13.53;;;;;;;1.61;100.00;99790.81;4995002;28;20193;-72
2022/03/30 07:25:37;;;;;;;21.97;12.00;;;;;;;1.68;100.00;99783.06;4989199;28;20831;-72
2022/03/30 07:28:05;;;;;;;14.40;7.57;;;;;;;1.79;100.00;99795.88;4987936;28;20213;-73
2022/03/30 07:30:32;;;;;;;15.43;5.57;;;;;;;2.13;100.00;99797.44;4984515;28;20217;-71
2022/03/30 07:32:59;;;;;;;10.70;4.50;;;;;;;2.40;96.34;99810.19;4988398;28;20191;-71
2022/03/30 07:35:28;;;;;;;15.47;4.00;;;;;;;2.56;92.34;99815.25;4984093;28;20206;-71
2022/03/30 07:37:57;;;;;;;13.03;3.70;;;;;;;2.75;91.77;99809.09;4991852;28;20191;-72
2022/03/30 07:40:24;;;;;;;11.03;3.60;;;;;;;2.92;93.17;99820.97;4993891;28;20277;-72
2022/03/30 07:42:52;;;;;;;8.77;3.80;;;;;;;3.08;93.43;99814.84;5010516;28;20205;-70
2022/03/30 07:45:21;;;;;;;15.53;4.37;;;;;;;3.27;92.60;99815.53;4990702;28;20237;-72
2022/03/30 07:47:47;;;;;;;10.43;4.33;;;;;;;3.46;86.46;99823.94;4993424;28;20195;-69
2022/03/30 07:50:14;;;;;;;11.43;3.90;;;;;;;3.58;85.42;99821.25;4986734;28;20662;-71
2022/03/30 07:52:43;;;;;;;8.90;3.80;;;;;;;3.75;89.21;99823.66;4985071;28;20197;-71
2022/03/30 07:55:11;;;;;;;8.23;3.60;;;;;;;3.94;84.40;99832.03;4985412;28;20224;-70
2022/03/30 07:57:42;;;;;;;13.30;3.97;;;;;;;4.12;82.32;99827.53;4984812;28;20684;-70
2022/03/30 08:00:12;;;;;;;8.87;3.30;;;;;;;4.29;85.95;99823.00;4983636;28;20249;-71
2022/03/30 08:02:39;;;;;;;10.50;3.40;;;;;;;4.47;79.77;99841.72;4986423;28;20207;-70
2022/03/30 08:05:08;;;;;;;8.47;3.33;;;;;;;4.59;76.56;99836.38;4983769;28;20720;-72
2022/03/30 08:07:34;;;;;;;11.17;3.40;;;;;;;4.75;74.71;99839.59;4983210;28;20252;-71
2022/03/30 08:10:02;;;;;;;9.07;3.70;;;;;;;4.89;74.11;99832.47;4986385;28;20197;-72
2022/03/30 08:12:29;;;;;;;11.70;3.30;;;;;;;5.01;73.42;99828.81;4985320;28;20228;-72
2022/03/30 08:14:55;;;;;;;13.80;4.33;;;;;;;5.10;70.95;99831.28;4984667;28;20212;-71
2022/03/30 08:17:24;;;;;;;13.83;3.47;;;;;;;5.23;72.86;99821.59;4984520;28;20201;-71
2022/03/30 08:19:50;;;;;;;10.97;3.80;;;;;;;5.36;70.41;99826.53;4984792;28;20197;-71
2022/03/30 08:22:28;;;;;;;9.10;3.07;;;;;;;5.32;69.81;99824.00;4991235;28;20231;-72
2022/03/30 08:24:56;;;;;;;5.87;2.77;;;;;;;5.36;69.07;99826.53;4984552;28;20205;-72
2022/03/30 08:27:28;;;;;;;7.37;2.80;;;;;;;5.54;68.69;99827.94;4981775;28;20211;-71
2022/03/30 08:29:56;;;;;;;9.10;3.13;;;;;;;5.70;68.26;99824.22;4998069;28;20205;-71
2022/03/30 08:32:24;;;;;;;7.87;2.83;;;;;;;5.90;65.43;99820.38;5001400;28;20223;-71
2022/03/30 08:34:52;;;;;;;10.13;3.13;;;;;;;5.94;64.49;99827.19;4985142;28;20260;-71
2022/03/30 08:37:18;;;;;;;10.57;3.23;;;;;;;6.03;65.51;99821.84;4984259;28;20209;-72
2022/03/30 08:39:45;;;;;;;11.60;2.93;;;;;;;6.03;62.49;99829.63;4990879;28;20204;-71
2022/03/30 08:42:14;;;;;;;7.43;3.10;;;;;;;6.19;62.73;99825.84;4989949;28;20220;-71
2022/03/30 08:44:42;;;;;;;8.37;3.30;;;;;;;6.37;62.14;99819.44;4990026;28;20226;-71
2022/03/30 08:47:10;;;;;;;8.07;3.77;;;;;;;6.60;65.67;99811.16;4993018;28;20201;-72
2022/03/30 08:49:37;;;;;;;6.33;2.93;;;;;;;6.76;61.70;99826.34;4989571;28;20256;-71
2022/03/30 08:52:06;;;;;;;9.00;3.70;;;;;;;6.71;59.57;99820.41;4985209;28;20221;-71
2022/03/30 08:54:34;;;;;;;9.53;3.90;;;;;;;6.65;61.44;99818.81;4988282;28;20212;-72
2022/03/30 08:57:00;;;;;;;12.10;3.20;;;;;;;6.76;60.77;99818.56;4990761;28;20209;-72
2022/03/30 08:59:27;;;;;;;8.23;2.73;;;;;;;6.81;59.27;99814.13;4998753;28;20208;-72
2022/03/30 09:01:56;;;;;;;7.73;2.87;;;;;;;6.83;58.80;99818.38;4983682;28;20240;-71
2022/03/30 09:04:25;;;;;;;7.03;2.90;;;;;;;6.93;60.68;99811.25;4984104;28;20654;-71
2022/03/30 09:06:54;;;;;;;10.17;2.83;;;;;;;7.04;58.08;99816.16;4989274;28;20210;-70
2022/03/30 09:09:29;;;;;;;11.83;3.03;;;;;;;6.97;57.47;99806.84;4988067;28;20209;-72
2022/03/30 09:11:56;;;;;;;13.83;3.30;;;;;;;6.89;58.22;99806.16;4984581;28;20228;-71
2022/03/30 09:14:25;;;;;;;7.50;3.20;;;;;;;6.93;58.70;99792.25;4988266;28;20248;-71
2022/03/30 09:16:54;;;;;;;11.30;3.90;;;;;;;7.11;61.11;99791.78;4986169;28;20701;-71
2022/03/30 09:19:23;;;;;;;11.23;3.50;;;;;;;7.28;60.28;99781.00;4990574;28;20193;-71
2022/03/30 09:21:54;;;;;;;8.77;3.37;;;;;;;7.48;61.89;99780.47;4986192;28;20272;-73
2022/03/30 09:24:23;;;;;;;11.00;3.70;;;;;;;7.62;60.14;99790.47;4988542;28;20196;-71
2022/03/30 09:26:50;;;;;;;9.67;3.30;;;;;;;7.55;56.26;99789.78;4986749;28;20221;-71
2022/03/30 09:29:19;;;;;;;8.90;3.13;;;;;;;7.43;55.84;99790.13;4986305;28;20205;-71
2022/03/30 09:31:48;;;;;;;10.07;3.30;;;;;;;7.41;56.31;99786.72;4985651;28;20236;-71
2022/03/30 09:34:15;;;;;;;14.90;3.60;;;;;;;7.55;56.61;99778.56;4993657;28;20202;-71
2022/03/30 09:36:44;;;;;;;8.03;3.37;;;;;;;7.64;56.39;99777.47;5001211;28;20699;-72
2022/03/30 09:39:28;;;;;;;9.80;2.90;;;;;;;7.82;57.63;99773.50;4986631;28;20206;-72
2022/03/30 09:41:56;;;;;;;8.33;3.20;;;;;;;7.85;53.99;99776.03;4987139;28;20660;-70
2022/03/30 09:44:23;;;;;;;6.63;2.87;;;;;;;7.91;55.56;99776.66;4988008;28;20607;-70
2022/03/30 09:46:58;;;;;;;7.60;3.40;;;;;;;8.14;55.10;99768.25;4985850;28;20225;-71
2022/03/30 09:49:33;;;;;;;10.30;3.60;;;;;;;8.18;53.88;99769.00;4993564;28;20202;-72
2022/03/30 09:52:01;;;;;;;9.40;3.60;;;;;;;8.17;53.25;99764.69;4982480;28;20223;-71
2022/03/30 09:54:38;;;;;;;9.43;3.80;;;;;;;8.22;53.02;99762.81;4983629;28;20209;-72
2022/03/30 09:57:10;;;;;;;9.03;3.40;;;;;;;8.15;53.31;99769.91;4981434;28;20205;-72
2022/03/30 10:00:06;;;;;;;10.97;3.70;;;;;;;8.39;54.95;99762.31;4980975;28;20218;-71
2022/03/30 10:02:38;;;;;;;9.90;3.40;;;;;;;8.33;52.78;99767.66;4990245;28;20873;-72
2022/03/30 10:05:06;;;;;;;12.60;3.70;;;;;;;8.32;52.73;99768.59;4993169;28;20199;-72
2022/03/30 10:07:34;;;;;;;11.50;3.77;;;;;;;8.36;52.25;99762.38;4985593;28;20211;-70
2022/03/30 10:10:03;;;;;;;10.50;3.30;;;;;;;8.50;54.06;99747.25;4986701;28;20292;-71
2022/03/30 10:12:30;;;;;;;7.57;3.30;;;;;;;8.56;52.07;99758.34;4984662;28;20220;-72
2022/03/30 10:14:58;;;;;;;9.73;4.03;;;;;;;8.67;54.39;99746.72;4985629;28;20199;-73
2022/03/30 10:17:26;;;;;;;15.80;3.97;;;;;;;8.58;51.30;99751.34;4985855;28;20943;-73
2022/03/30 10:19:55;;;;;;;8.73;3.43;;;;;;;8.65;51.17;99753.72;4995812;28;20201;-71
2022/03/30 10:23:09;;;;;;;7.73;3.30;;;;;;;8.78;51.18;99750.72;4990523;28;20305;-71
2022/03/30 10:25:54;;;;;;;8.47;3.47;;;;;;;8.83;51.08;99744.47;4989070;28;20735;-72
2022/03/30 10:28:23;;;;;;;7.47;3.40;;;;;;;9.03;52.49;99737.75;4983809;28;20202;-72
2022/03/30 10:30:54;;;;;;;10.87;3.40;;;;;;;9.21;53.41;99737.09;4984056;28;20218;-71
2022/03/30 10:33:32;;;;;;;12.40;3.73;;;;;;;9.43;53.45;99728.56;4982087;28;20205;-72
2022/03/30 10:36:00;;;;;;;8.37;3.83;;;;;;;9.47;50.91;99730.16;4989851;28;20204;-73
2022/03/30 10:38:28;;;;;;;9.83;3.70;;;;;;;9.61;51.13;99727.91;4984298;28;20198;-71
2022/03/30 10:41:06;;;;;;;11.23;4.07;;;;;;;9.61;51.68;99729.66;4983901;28;20221;-70
2022/03/30 10:43:33;;;;;;;10.97;3.90;;;;;;;9.36;48.92;99732.31;4990237;28;20201;-73
2022/03/30 10:46:02;;;;;;;7.97;3.63;;;;;;;9.32;49.08;99726.31;5000856;28;20280;-72
2022/03/30 10:48:38;;;;;;;9.17;3.83;;;;;;;9.42;49.28;99722.50;4987532;28;20205;-71
2022/03/30 10:51:20;;;;;;;10.33;3.60;;;;;;;9.37;48.27;99721.81;4981855;28;20305;-71
2022/03/30 10:53:50;;;;;;;9.17;3.37;;;;;;;9.62;51.60;99714.00;4985301;28;20210;-71
2022/03/30 10:56:33;;;;;;;11.60;3.43;;;;;;;9.90;50.94;99705.13;4992756;28;20620;-72
2022/03/30 10:59:08;;;;;;;9.37;3.27;;;;;;;10.02;52.08;99709.88;4990763;28;20768;-73
2022/03/30 11:01:36;;;;;;;9.07;3.13;;;;;;;9.84;47.64;99707.97;4987206;28;20381;-72
2022/03/30 11:04:05;;;;;;;13.97;5.53;;;;;;;9.93;48.28;99710.22;4982310;28;20691;-71
2022/03/30 11:06:34;;;;;;;9.27;3.70;;;;;;;10.08;48.85;99698.38;4984525;28;20208;-71
2022/03/30 11:09:02;;;;;;;7.70;3.30;;;;;;;10.11;46.91;99703.44;4977266;28;20201;-70
2022/03/30 11:11:34;;;;;;;8.43;3.57;;;;;;;10.10;47.44;99704.38;4978224;28;20224;-72
2022/03/30 11:14:27;;;;;;;9.83;3.30;;;;;;;9.79;46.99;99695.13;4978445;28;20207;-71
2022/03/30 11:16:55;;;;;;;10.80;3.33;;;;;;;9.84;48.24;99688.00;4981381;28;20211;-71
2022/03/30 11:19:28;;;;;;;7.63;3.13;;;;;;;9.96;47.32;99697.09;4986868;28;20211;-71
2022/03/30 11:22:02;;;;;;;12.30;3.40;;;;;;;10.08;47.86;99692.31;4978500;28;20263;-70
2022/03/30 11:24:31;;;;;;;8.60;3.60;;;;;;;10.15;46.78;99696.38;4979565;28;20215;-71
2022/03/30 11:27:22;;;;;;;11.17;3.67;;;;;;;9.97;46.30;99688.38;4983851;28;20215;-71
2022/03/30 11:29:55;;;;;;;9.73;3.70;;;;;;;9.83;47.08;99683.72;4982621;28;20786;-71
2022/03/30 11:32:41;;;;;;;10.87;4.00;;;;;;;9.91;46.63;99685.16;4986016;28;20642;-72
2022/03/30 11:35:10;;;;;;;11.00;3.47;;;;;;;10.04;46.43;99683.78;4985804;28;20211;-73